CheckWX is a tool to help pilots better visualize weather data.  It is not intended as a substitute for an official pre-flight weather briefing.

07:32:28 UTC

SBFZ TAF
Pinto Martins International Airport
Fortaleza, Brazil
TAF SBFZ 200400Z 2006/2106 15005KT 9999 BKN020 TN25/2006Z TX31/2017Z BECMG 2010/2012 16010KT FEW020 BECMG 2014/2016 09010KT SCT030 BECMG 2021/2 023 CAVOK BECMG 2102/2104 9999 SCT020 RMK PEN

Jun-20@
06:00 UTC

Jun-20 @ 06:00 UTC

Jun-20@
10:00 UTC

Jun-20 @ 10:00 UTC

TAF SBFZ 200400Z 2006/2106 15005KT 9999 BKN020 TN25/2006Z TX31/2017Z
Wind
  • 150° at 5 KTS
Cloud Levels
  • Broken at 2,000' AGL

Jun-20@
10:00 UTC

Jun-20 @ 10:00 UTC

Jun-20@
14:00 UTC

Jun-20 @ 14:00 UTC

BECMG 2010/2012 16010KT FEW020

Becoming

Becoming Conditions expected by Thu, Jun 20, 2019 @ 12:00 UTC

Wind
  • 160° at 10 KTS
Cloud Levels
  • Few at 2,000' AGL

Jun-20@
14:00 UTC

Jun-20 @ 14:00 UTC

Jun-21@
02:00 UTC

Jun-21 @ 02:00 UTC

BECMG 2014/2016 09010KT SCT030

Becoming

Becoming Conditions expected by Thu, Jun 20, 2019 @ 16:00 UTC

Wind
  • 090° at 10 KTS
Cloud Levels
  • Scattered at 3,000' AGL

Jun-21@
02:00 UTC

Jun-21 @ 02:00 UTC

Jun-21@
06:00 UTC

Jun-21 @ 06:00 UTC

BECMG 2102/2104 9999 SCT020 RMK PEN

Becoming

Becoming Conditions expected by Fri, Jun 21, 2019 @ 04:00 UTC

Wind
  • 090° at 10 KTS
Cloud Levels
  • Scattered at 2,000' AGL